sensor_id;sensor_type;location;lat;lon;timestamp;P1;durP1;ratioP1;P2;durP2;ratioP2
36371;SDS011;22398;51.346;12.372;2023-11-19T00:00:03;9.48;;;3.78;;
36371;SDS011;22398;51.346;12.372;2023-11-19T00:05:12;6.15;;;3.17;;
36371;SDS011;22398;51.346;12.372;2023-11-19T00:10:17;5.07;;;2.85;;
36371;SDS011;22398;51.346;12.372;2023-11-19T00:15:22;5.32;;;2.63;;
36371;SDS011;22398;51.346;12.372;2023-11-19T00:20:26;3.42;;;2.05;;
36371;SDS011;22398;51.346;12.372;2023-11-19T00:25:31;5.35;;;2.30;;
36371;SDS011;22398;51.346;12.372;2023-11-19T00:30:35;3.77;;;2.37;;
36371;SDS011;22398;51.346;12.372;2023-11-19T00:35:38;4.55;;;2.13;;
36371;SDS011;22398;51.346;12.372;2023-11-19T00:40:43;4.80;;;2.58;;
36371;SDS011;22398;51.346;12.372;2023-11-19T00:45:47;4.03;;;2.15;;
36371;SDS011;22398;51.346;12.372;2023-11-19T00:50:52;3.40;;;2.22;;
36371;SDS011;22398;51.346;12.372;2023-11-19T00:55:56;4.13;;;2.38;;
36371;SDS011;22398;51.346;12.372;2023-11-19T01:01:00;2.90;;;1.50;;
36371;SDS011;22398;51.346;12.372;2023-11-19T01:06:04;2.30;;;1.33;;
36371;SDS011;22398;51.346;12.372;2023-11-19T01:11:11;3.65;;;1.65;;
36371;SDS011;22398;51.346;12.372;2023-11-19T01:16:23;2.33;;;1.30;;
36371;SDS011;22398;51.346;12.372;2023-11-19T01:21:28;2.83;;;1.67;;
36371;SDS011;22398;51.346;12.372;2023-11-19T01:26:33;2.58;;;1.55;;
36371;SDS011;22398;51.346;12.372;2023-11-19T01:31:37;7.18;;;2.63;;
36371;SDS011;22398;51.346;12.372;2023-11-19T01:36:41;7.57;;;4.38;;
36371;SDS011;22398;51.346;12.372;2023-11-19T01:41:45;8.82;;;4.78;;
36371;SDS011;22398;51.346;12.372;2023-11-19T01:46:49;4.25;;;2.58;;
36371;SDS011;22398;51.346;12.372;2023-11-19T01:51:54;4.03;;;1.93;;
36371;SDS011;22398;51.346;12.372;2023-11-19T01:56:58;10.68;;;2.15;;
36371;SDS011;22398;51.346;12.372;2023-11-19T02:02:02;4.10;;;2.38;;
36371;SDS011;22398;51.346;12.372;2023-11-19T02:07:07;3.20;;;1.60;;
36371;SDS011;22398;51.346;12.372;2023-11-19T02:17:27;3.17;;;1.60;;
36371;SDS011;22398;51.346;12.372;2023-11-19T02:22:33;7.35;;;1.58;;
36371;SDS011;22398;51.346;12.372;2023-11-19T02:27:42;3.63;;;1.55;;
36371;SDS011;22398;51.346;12.372;2023-11-19T02:32:51;2.83;;;1.30;;
36371;SDS011;22398;51.346;12.372;2023-11-19T02:37:55;4.35;;;1.80;;
36371;SDS011;22398;51.346;12.372;2023-11-19T02:43:00;3.50;;;1.65;;
36371;SDS011;22398;51.346;12.372;2023-11-19T02:48:06;3.47;;;1.73;;
36371;SDS011;22398;51.346;12.372;2023-11-19T02:53:11;2.33;;;1.40;;
36371;SDS011;22398;51.346;12.372;2023-11-19T02:58:16;8.45;;;2.03;;
36371;SDS011;22398;51.346;12.372;2023-11-19T03:03:25;4.55;;;1.52;;
36371;SDS011;22398;51.346;12.372;2023-11-19T03:08:34;2.92;;;1.80;;
36371;SDS011;22398;51.346;12.372;2023-11-19T03:13:39;2.95;;;1.80;;
36371;SDS011;22398;51.346;12.372;2023-11-19T03:18:43;2.40;;;1.37;;
36371;SDS011;22398;51.346;12.372;2023-11-19T03:23:46;3.88;;;1.80;;
36371;SDS011;22398;51.346;12.372;2023-11-19T03:28:51;4.15;;;1.70;;
36371;SDS011;22398;51.346;12.372;2023-11-19T03:33:54;4.70;;;2.00;;
36371;SDS011;22398;51.346;12.372;2023-11-19T03:44:06;6.60;;;1.70;;
36371;SDS011;22398;51.346;12.372;2023-11-19T03:49:11;2.65;;;1.38;;
36371;SDS011;22398;51.346;12.372;2023-11-19T03:54:14;2.85;;;1.60;;
36371;SDS011;22398;51.346;12.372;2023-11-19T03:59:19;2.22;;;1.42;;
36371;SDS011;22398;51.346;12.372;2023-11-19T04:04:23;4.05;;;1.75;;
36371;SDS011;22398;51.346;12.372;2023-11-19T04:09:26;4.95;;;1.80;;
36371;SDS011;22398;51.346;12.372;2023-11-19T04:14:31;4.35;;;1.55;;
36371;SDS011;22398;51.346;12.372;2023-11-19T04:19:34;3.30;;;1.10;;
36371;SDS011;22398;51.346;12.372;2023-11-19T04:24:38;1.90;;;1.17;;
36371;SDS011;22398;51.346;12.372;2023-11-19T04:29:43;1.95;;;0.95;;
36371;SDS011;22398;51.346;12.372;2023-11-19T04:34:49;2.30;;;0.85;;
36371;SDS011;22398;51.346;12.372;2023-11-19T04:39:52;4.55;;;1.00;;
36371;SDS011;22398;51.346;12.372;2023-11-19T04:44:58;1.65;;;1.05;;
36371;SDS011;22398;51.346;12.372;2023-11-19T04:50:01;3.10;;;0.80;;
36371;SDS011;22398;51.346;12.372;2023-11-19T04:55:05;1.88;;;0.52;;
36371;SDS011;22398;51.346;12.372;2023-11-19T05:00:15;0.90;;;0.43;;
36371;SDS011;22398;51.346;12.372;2023-11-19T05:05:19;1.77;;;0.57;;
36371;SDS011;22398;51.346;12.372;2023-11-19T05:10:22;1.45;;;0.65;;
36371;SDS011;22398;51.346;12.372;2023-11-19T05:15:27;1.23;;;0.50;;
36371;SDS011;22398;51.346;12.372;2023-11-19T05:20:31;1.63;;;0.70;;
36371;SDS011;22398;51.346;12.372;2023-11-19T05:25:34;1.58;;;0.80;;
36371;SDS011;22398;51.346;12.372;2023-11-19T05:30:41;1.23;;;0.70;;
36371;SDS011;22398;51.346;12.372;2023-11-19T05:35:44;2.07;;;0.93;;
36371;SDS011;22398;51.346;12.372;2023-11-19T05:40:48;1.15;;;0.50;;
36371;SDS011;22398;51.346;12.372;2023-11-19T05:45:53;1.75;;;0.63;;
36371;SDS011;22398;51.346;12.372;2023-11-19T05:50:56;1.00;;;0.50;;
36371;SDS011;22398;51.346;12.372;2023-11-19T05:56:00;1.42;;;0.65;;
36371;SDS011;22398;51.346;12.372;2023-11-19T06:01:07;0.88;;;0.47;;
36371;SDS011;22398;51.346;12.372;2023-11-19T06:06:10;4.60;;;1.23;;
36371;SDS011;22398;51.346;12.372;2023-11-19T06:11:14;1.75;;;0.70;;
36371;SDS011;22398;51.346;12.372;2023-11-19T06:16:21;1.88;;;0.88;;
36371;SDS011;22398;51.346;12.372;2023-11-19T06:21:25;1.55;;;0.68;;
36371;SDS011;22398;51.346;12.372;2023-11-19T06:26:29;2.60;;;0.70;;
36371;SDS011;22398;51.346;12.372;2023-11-19T06:31:33;3.45;;;0.85;;
36371;SDS011;22398;51.346;12.372;2023-11-19T06:36:38;2.20;;;0.82;;
36371;SDS011;22398;51.346;12.372;2023-11-19T06:41:44;1.65;;;0.60;;
36371;SDS011;22398;51.346;12.372;2023-11-19T06:46:49;0.80;;;0.43;;
36371;SDS011;22398;51.346;12.372;2023-11-19T06:51:53;0.32;;;0.30;;
36371;SDS011;22398;51.346;12.372;2023-11-19T06:56:57;0.60;;;0.50;;
36371;SDS011;22398;51.346;12.372;2023-11-19T07:02:02;0.85;;;0.38;;
36371;SDS011;22398;51.346;12.372;2023-11-19T07:07:06;0.50;;;0.38;;
36371;SDS011;22398;51.346;12.372;2023-11-19T07:12:09;1.92;;;0.90;;
36371;SDS011;22398;51.346;12.372;2023-11-19T07:17:17;0.63;;;0.40;;
36371;SDS011;22398;51.346;12.372;2023-11-19T07:22:22;1.80;;;0.82;;
36371;SDS011;22398;51.346;12.372;2023-11-19T07:27:26;1.25;;;0.57;;
36371;SDS011;22398;51.346;12.372;2023-11-19T07:32:31;1.40;;;0.63;;
36371;SDS011;22398;51.346;12.372;2023-11-19T07:37:35;1.90;;;0.70;;
36371;SDS011;22398;51.346;12.372;2023-11-19T07:42:38;1.65;;;0.82;;
36371;SDS011;22398;51.346;12.372;2023-11-19T07:47:44;4.35;;;1.30;;
36371;SDS011;22398;51.346;12.372;2023-11-19T07:52:48;2.38;;;1.27;;
36371;SDS011;22398;51.346;12.372;2023-11-19T07:57:52;0.90;;;0.60;;
36371;SDS011;22398;51.346;12.372;2023-11-19T08:02:57;2.83;;;0.80;;
36371;SDS011;22398;51.346;12.372;2023-11-19T08:08:02;1.63;;;0.75;;
36371;SDS011;22398;51.346;12.372;2023-11-19T08:13:06;2.42;;;0.73;;
36371;SDS011;22398;51.346;12.372;2023-11-19T08:18:11;1.30;;;0.80;;
36371;SDS011;22398;51.346;12.372;2023-11-19T08:23:15;0.70;;;0.50;;
36371;SDS011;22398;51.346;12.372;2023-11-19T08:28:20;0.63;;;0.45;;
36371;SDS011;22398;51.346;12.372;2023-11-19T08:33:24;1.10;;;0.50;;
36371;SDS011;22398;51.346;12.372;2023-11-19T08:38:29;3.58;;;0.70;;
36371;SDS011;22398;51.346;12.372;2023-11-19T08:43:32;2.38;;;0.90;;
36371;SDS011;22398;51.346;12.372;2023-11-19T08:48:37;2.20;;;0.95;;
36371;SDS011;22398;51.346;12.372;2023-11-19T08:53:41;1.90;;;0.67;;
36371;SDS011;22398;51.346;12.372;2023-11-19T08:58:44;1.40;;;0.60;;
36371;SDS011;22398;51.346;12.372;2023-11-19T09:03:49;0.82;;;0.50;;
36371;SDS011;22398;51.346;12.372;2023-11-19T09:08:53;3.47;;;0.93;;
36371;SDS011;22398;51.346;12.372;2023-11-19T09:14:02;1.80;;;0.80;;
36371;SDS011;22398;51.346;12.372;2023-11-19T09:19:07;1.40;;;0.70;;
36371;SDS011;22398;51.346;12.372;2023-11-19T09:24:11;4.28;;;1.83;;
36371;SDS011;22398;51.346;12.372;2023-11-19T09:29:17;17.60;;;7.10;;
36371;SDS011;22398;51.346;12.372;2023-11-19T09:34:23;5.93;;;2.70;;
36371;SDS011;22398;51.346;12.372;2023-11-19T09:39:26;5.60;;;1.50;;
36371;SDS011;22398;51.346;12.372;2023-11-19T09:44:30;5.47;;;1.92;;
36371;SDS011;22398;51.346;12.372;2023-11-19T09:49:35;3.15;;;1.38;;
36371;SDS011;22398;51.346;12.372;2023-11-19T09:54:39;7.47;;;3.67;;
36371;SDS011;22398;51.346;12.372;2023-11-19T09:59:43;4.00;;;1.40;;
36371;SDS011;22398;51.346;12.372;2023-11-19T10:04:49;3.70;;;1.25;;
36371;SDS011;22398;51.346;12.372;2023-11-19T10:14:57;7.43;;;1.95;;
36371;SDS011;22398;51.346;12.372;2023-11-19T10:20:02;4.82;;;1.70;;
36371;SDS011;22398;51.346;12.372;2023-11-19T10:30:24;4.90;;;1.58;;
36371;SDS011;22398;51.346;12.372;2023-11-19T10:35:30;5.75;;;1.75;;
36371;SDS011;22398;51.346;12.372;2023-11-19T10:40:38;2.38;;;1.35;;
36371;SDS011;22398;51.346;12.372;2023-11-19T10:45:42;5.85;;;1.38;;
36371;SDS011;22398;51.346;12.372;2023-11-19T10:50:49;3.75;;;1.30;;
36371;SDS011;22398;51.346;12.372;2023-11-19T10:55:56;5.35;;;1.90;;
36371;SDS011;22398;51.346;12.372;2023-11-19T11:01:02;3.65;;;1.75;;
36371;SDS011;22398;51.346;12.372;2023-11-19T11:06:08;4.05;;;1.77;;
36371;SDS011;22398;51.346;12.372;2023-11-19T11:11:13;9.52;;;1.25;;
36371;SDS011;22398;51.346;12.372;2023-11-19T11:16:19;10.50;;;2.03;;
36371;SDS011;22398;51.346;12.372;2023-11-19T11:21:26;6.68;;;2.05;;
36371;SDS011;22398;51.346;12.372;2023-11-19T11:26:34;7.03;;;1.50;;
36371;SDS011;22398;51.346;12.372;2023-11-19T11:31:51;10.57;;;2.22;;
36371;SDS011;22398;51.346;12.372;2023-11-19T11:37:06;9.93;;;1.73;;
36371;SDS011;22398;51.346;12.372;2023-11-19T11:53:19;17.98;;;2.83;;
36371;SDS011;22398;51.346;12.372;2023-11-19T11:58:30;12.38;;;1.85;;
36371;SDS011;22398;51.346;12.372;2023-11-19T12:03:34;19.75;;;4.15;;
36371;SDS011;22398;51.346;12.372;2023-11-19T12:13:56;16.15;;;2.58;;
36371;SDS011;22398;51.346;12.372;2023-11-19T12:19:04;10.40;;;2.22;;
36371;SDS011;22398;51.346;12.372;2023-11-19T12:24:10;17.92;;;2.55;;
36371;SDS011;22398;51.346;12.372;2023-11-19T12:29:13;13.65;;;3.03;;
36371;SDS011;22398;51.346;12.372;2023-11-19T12:45:34;7.82;;;2.30;;
36371;SDS011;22398;51.346;12.372;2023-11-19T12:56:00;10.52;;;1.92;;
36371;SDS011;22398;51.346;12.372;2023-11-19T13:01:14;9.32;;;2.35;;
36371;SDS011;22398;51.346;12.372;2023-11-19T13:06:19;15.93;;;2.30;;
36371;SDS011;22398;51.346;12.372;2023-11-19T13:11:31;7.68;;;2.38;;
36371;SDS011;22398;51.346;12.372;2023-11-19T13:16:36;13.25;;;2.97;;
36371;SDS011;22398;51.346;12.372;2023-11-19T13:21:41;13.65;;;3.13;;
36371;SDS011;22398;51.346;12.372;2023-11-19T13:26:48;11.63;;;2.67;;
36371;SDS011;22398;51.346;12.372;2023-11-19T13:31:52;13.63;;;2.57;;
36371;SDS011;22398;51.346;12.372;2023-11-19T13:36:55;10.23;;;3.22;;
36371;SDS011;22398;51.346;12.372;2023-11-19T13:42:00;18.48;;;6.35;;
36371;SDS011;22398;51.346;12.372;2023-11-19T13:47:08;17.65;;;5.95;;
36371;SDS011;22398;51.346;12.372;2023-11-19T13:52:12;10.07;;;3.08;;
36371;SDS011;22398;51.346;12.372;2023-11-19T13:57:17;22.65;;;3.45;;
36371;SDS011;22398;51.346;12.372;2023-11-19T14:02:20;13.60;;;2.67;;
36371;SDS011;22398;51.346;12.372;2023-11-19T14:07:24;20.08;;;2.90;;
36371;SDS011;22398;51.346;12.372;2023-11-19T14:12:28;17.35;;;2.78;;
36371;SDS011;22398;51.346;12.372;2023-11-19T14:17:32;11.53;;;2.73;;
36371;SDS011;22398;51.346;12.372;2023-11-19T14:22:36;11.85;;;2.55;;
36371;SDS011;22398;51.346;12.372;2023-11-19T14:27:41;13.23;;;3.40;;
36371;SDS011;22398;51.346;12.372;2023-11-19T14:32:46;14.98;;;2.33;;
36371;SDS011;22398;51.346;12.372;2023-11-19T14:37:51;16.52;;;4.35;;
36371;SDS011;22398;51.346;12.372;2023-11-19T14:42:56;17.92;;;3.03;;
36371;SDS011;22398;51.346;12.372;2023-11-19T14:47:59;19.53;;;2.77;;
36371;SDS011;22398;51.346;12.372;2023-11-19T14:53:02;15.63;;;3.38;;
36371;SDS011;22398;51.346;12.372;2023-11-19T14:58:08;19.33;;;2.92;;
36371;SDS011;22398;51.346;12.372;2023-11-19T15:03:15;12.77;;;4.05;;
36371;SDS011;22398;51.346;12.372;2023-11-19T15:08:20;18.48;;;3.38;;
36371;SDS011;22398;51.346;12.372;2023-11-19T15:13:25;17.48;;;5.80;;
36371;SDS011;22398;51.346;12.372;2023-11-19T15:18:29;19.97;;;3.00;;
36371;SDS011;22398;51.346;12.372;2023-11-19T15:23:32;18.50;;;4.22;;
36371;SDS011;22398;51.346;12.372;2023-11-19T15:28:37;21.63;;;7.53;;
36371;SDS011;22398;51.346;12.372;2023-11-19T15:33:40;19.40;;;3.72;;
36371;SDS011;22398;51.346;12.372;2023-11-19T15:38:44;15.57;;;4.68;;
36371;SDS011;22398;51.346;12.372;2023-11-19T15:43:52;14.20;;;3.33;;
36371;SDS011;22398;51.346;12.372;2023-11-19T15:48:56;22.15;;;3.80;;
36371;SDS011;22398;51.346;12.372;2023-11-19T15:54:00;15.27;;;2.78;;
36371;SDS011;22398;51.346;12.372;2023-11-19T15:59:04;14.63;;;3.28;;
36371;SDS011;22398;51.346;12.372;2023-11-19T16:04:09;17.63;;;5.97;;
36371;SDS011;22398;51.346;12.372;2023-11-19T16:09:13;27.63;;;5.13;;
36371;SDS011;22398;51.346;12.372;2023-11-19T16:14:21;15.95;;;4.90;;
36371;SDS011;22398;51.346;12.372;2023-11-19T16:19:25;16.85;;;3.55;;
36371;SDS011;22398;51.346;12.372;2023-11-19T16:24:29;14.82;;;3.92;;
36371;SDS011;22398;51.346;12.372;2023-11-19T16:29:34;17.35;;;3.05;;
36371;SDS011;22398;51.346;12.372;2023-11-19T16:34:37;12.37;;;3.17;;
36371;SDS011;22398;51.346;12.372;2023-11-19T16:39:44;13.93;;;3.08;;
36371;SDS011;22398;51.346;12.372;2023-11-19T16:44:49;11.55;;;4.15;;
36371;SDS011;22398;51.346;12.372;2023-11-19T16:49:53;14.30;;;3.00;;
36371;SDS011;22398;51.346;12.372;2023-11-19T16:54:57;18.45;;;5.88;;
36371;SDS011;22398;51.346;12.372;2023-11-19T17:00:03;13.55;;;3.90;;
36371;SDS011;22398;51.346;12.372;2023-11-19T17:05:07;12.55;;;4.10;;
36371;SDS011;22398;51.346;12.372;2023-11-19T17:10:11;22.75;;;5.97;;
36371;SDS011;22398;51.346;12.372;2023-11-19T17:15:16;18.63;;;4.00;;
36371;SDS011;22398;51.346;12.372;2023-11-19T17:20:19;23.13;;;5.27;;
36371;SDS011;22398;51.346;12.372;2023-11-19T17:25:23;20.88;;;6.05;;
36371;SDS011;22398;51.346;12.372;2023-11-19T17:30:28;16.90;;;4.18;;
36371;SDS011;22398;51.346;12.372;2023-11-19T17:35:32;14.33;;;5.33;;
36371;SDS011;22398;51.346;12.372;2023-11-19T17:40:36;21.83;;;5.05;;
36371;SDS011;22398;51.346;12.372;2023-11-19T17:45:41;15.68;;;3.97;;
36371;SDS011;22398;51.346;12.372;2023-11-19T17:55:49;14.38;;;3.85;;
36371;SDS011;22398;51.346;12.372;2023-11-19T18:00:55;23.85;;;6.68;;
36371;SDS011;22398;51.346;12.372;2023-11-19T18:05:58;17.13;;;4.37;;
36371;SDS011;22398;51.346;12.372;2023-11-19T18:11:01;19.73;;;4.47;;
36371;SDS011;22398;51.346;12.372;2023-11-19T18:16:07;17.33;;;4.32;;
36371;SDS011;22398;51.346;12.372;2023-11-19T18:21:14;16.30;;;3.03;;
36371;SDS011;22398;51.346;12.372;2023-11-19T18:26:17;21.05;;;2.88;;
36371;SDS011;22398;51.346;12.372;2023-11-19T18:31:22;19.38;;;3.15;;
36371;SDS011;22398;51.346;12.372;2023-11-19T18:36:26;11.82;;;2.72;;
36371;SDS011;22398;51.346;12.372;2023-11-19T18:41:35;9.45;;;2.50;;
36371;SDS011;22398;51.346;12.372;2023-11-19T18:46:40;14.65;;;2.85;;
36371;SDS011;22398;51.346;12.372;2023-11-19T18:51:44;20.52;;;2.95;;
36371;SDS011;22398;51.346;12.372;2023-11-19T18:56:48;12.93;;;3.42;;
36371;SDS011;22398;51.346;12.372;2023-11-19T19:01:55;10.98;;;2.30;;
36371;SDS011;22398;51.346;12.372;2023-11-19T19:12:03;14.35;;;3.00;;
36371;SDS011;22398;51.346;12.372;2023-11-19T19:17:08;7.93;;;2.88;;
36371;SDS011;22398;51.346;12.372;2023-11-19T19:22:12;12.40;;;3.40;;
36371;SDS011;22398;51.346;12.372;2023-11-19T19:27:16;13.70;;;2.53;;
36371;SDS011;22398;51.346;12.372;2023-11-19T19:32:21;11.50;;;2.25;;
36371;SDS011;22398;51.346;12.372;2023-11-19T19:37:25;8.25;;;1.48;;
36371;SDS011;22398;51.346;12.372;2023-11-19T19:42:28;9.25;;;1.98;;
36371;SDS011;22398;51.346;12.372;2023-11-19T19:47:34;9.75;;;2.28;;
36371;SDS011;22398;51.346;12.372;2023-11-19T19:52:39;9.07;;;2.00;;
36371;SDS011;22398;51.346;12.372;2023-11-19T19:57:43;14.25;;;3.05;;
36371;SDS011;22398;51.346;12.372;2023-11-19T20:02:48;7.20;;;2.30;;
36371;SDS011;22398;51.346;12.372;2023-11-19T20:12:59;13.75;;;2.05;;
36371;SDS011;22398;51.346;12.372;2023-11-19T20:18:04;6.03;;;2.03;;
36371;SDS011;22398;51.346;12.372;2023-11-19T20:23:08;9.70;;;1.83;;
36371;SDS011;22398;51.346;12.372;2023-11-19T20:28:11;9.20;;;1.75;;
36371;SDS011;22398;51.346;12.372;2023-11-19T20:33:17;9.38;;;1.60;;
36371;SDS011;22398;51.346;12.372;2023-11-19T20:38:21;8.98;;;1.92;;
36371;SDS011;22398;51.346;12.372;2023-11-19T20:43:25;8.75;;;1.65;;
36371;SDS011;22398;51.346;12.372;2023-11-19T20:48:30;14.35;;;2.85;;
36371;SDS011;22398;51.346;12.372;2023-11-19T20:53:33;9.33;;;2.17;;
36371;SDS011;22398;51.346;12.372;2023-11-19T20:58:36;11.45;;;1.67;;
36371;SDS011;22398;51.346;12.372;2023-11-19T21:03:42;8.88;;;2.05;;
36371;SDS011;22398;51.346;12.372;2023-11-19T21:08:46;10.52;;;1.73;;
36371;SDS011;22398;51.346;12.372;2023-11-19T21:13:49;8.52;;;1.70;;
36371;SDS011;22398;51.346;12.372;2023-11-19T21:18:54;9.80;;;2.22;;
36371;SDS011;22398;51.346;12.372;2023-11-19T21:23:58;8.90;;;1.88;;
36371;SDS011;22398;51.346;12.372;2023-11-19T21:29:02;5.20;;;1.48;;
36371;SDS011;22398;51.346;12.372;2023-11-19T21:34:07;9.23;;;1.75;;
36371;SDS011;22398;51.346;12.372;2023-11-19T21:39:10;8.07;;;2.07;;
36371;SDS011;22398;51.346;12.372;2023-11-19T21:44:14;11.90;;;1.77;;
36371;SDS011;22398;51.346;12.372;2023-11-19T21:49:20;10.40;;;1.65;;
36371;SDS011;22398;51.346;12.372;2023-11-19T21:54:23;7.25;;;1.73;;
36371;SDS011;22398;51.346;12.372;2023-11-19T21:59:27;20.40;;;1.73;;
36371;SDS011;22398;51.346;12.372;2023-11-19T22:04:34;8.90;;;2.20;;
36371;SDS011;22398;51.346;12.372;2023-11-19T22:09:38;9.77;;;2.10;;
36371;SDS011;22398;51.346;12.372;2023-11-19T22:14:42;8.40;;;1.77;;
36371;SDS011;22398;51.346;12.372;2023-11-19T22:19:48;9.43;;;2.30;;
36371;SDS011;22398;51.346;12.372;2023-11-19T22:24:51;12.77;;;2.43;;
36371;SDS011;22398;51.346;12.372;2023-11-19T22:29:55;11.77;;;1.92;;
36371;SDS011;22398;51.346;12.372;2023-11-19T22:35:00;10.48;;;2.08;;
36371;SDS011;22398;51.346;12.372;2023-11-19T22:40:04;15.25;;;1.88;;
36371;SDS011;22398;51.346;12.372;2023-11-19T22:45:09;9.52;;;1.95;;
36371;SDS011;22398;51.346;12.372;2023-11-19T22:50:14;8.10;;;2.45;;
36371;SDS011;22398;51.346;12.372;2023-11-19T22:55:17;14.38;;;2.90;;
36371;SDS011;22398;51.346;12.372;2023-11-19T23:00:21;13.15;;;3.45;;
36371;SDS011;22398;51.346;12.372;2023-11-19T23:05:31;21.42;;;2.78;;
36371;SDS011;22398;51.346;12.372;2023-11-19T23:10:37;16.63;;;2.97;;
36371;SDS011;22398;51.346;12.372;2023-11-19T23:15:41;11.93;;;2.28;;
36371;SDS011;22398;51.346;12.372;2023-11-19T23:20:46;9.90;;;1.90;;
36371;SDS011;22398;51.346;12.372;2023-11-19T23:25:50;16.88;;;2.72;;
36371;SDS011;22398;51.346;12.372;2023-11-19T23:30:54;8.85;;;2.00;;
36371;SDS011;22398;51.346;12.372;2023-11-19T23:35:59;20.60;;;2.97;;
36371;SDS011;22398;51.346;12.372;2023-11-19T23:41:03;19.02;;;2.50;;
36371;SDS011;22398;51.346;12.372;2023-11-19T23:46:08;18.45;;;2.50;;
36371;SDS011;22398;51.346;12.372;2023-11-19T23:51:14;10.50;;;2.33;;
36371;SDS011;22398;51.346;12.372;2023-11-19T23:56:18;14.03;;;2.47;;
